.
WxDataArchive / Data Records for 2012-10-10
2012-10-09 October 2012 2012-10-11

Data Records for Wednesday, 10 October 2012

Time	Temp	Chill	HIndex	Humid	Dewpt	 Wind 	HiWind	WindDir	Rain 	Barom 
-----	----	-----	------	-----	-----	------	------	-------	-----	----- 
00:00	49.2	49.2	49.2	68	39.1	0	1	248	0.00	29.879 
00:05	49.4	49.4	49.4	68	39.3	0	1	248	0.00	29.879 
00:10	49.4	49.4	49.4	68	39.3	0	2	248	0.00	29.879 
00:15	49.4	49.4	49.4	67	38.9	0	1	248	0.00	29.873 
00:20	49.4	49.4	49.4	67	38.9	0	1	248	0.00	29.873 
00:25	49.4	49.4	49.4	67	38.9	0	2	248	0.00	29.873 
00:30	49.4	49.4	49.4	67	38.9	0	1	248	0.00	29.866 
00:35	49.4	49.4	49.4	67	38.9	0	1	248	0.00	29.866 
00:40	49.4	49.4	49.4	67	38.9	0	1	248	0.00	29.866 
00:45	49.4	49.4	49.4	68	39.3	0	1	248	0.00	29.858 
00:50	49.4	49.4	49.4	68	39.3	0	2	248	0.00	29.858 
00:55	49.5	49.5	49.5	68	39.4	0	1	248	0.00	29.858 
01:00	49.6	49.6	49.6	67	39.1	0	4	248	0.00	29.851 
01:05	49.8	49.8	49.8	67	39.3	0	2	248	0.00	29.851 
01:10	49.8	49.8	49.8	67	39.3	0	3	248	0.00	29.851 
01:15	49.9	49.9	49.9	67	39.4	0	1	248	0.00	29.840 
01:20	49.9	49.9	49.9	67	39.4	0	2	225	0.00	29.840 
01:25	50.1	50.1	50.1	66	39.2	1	4	225	0.00	29.840 
01:30	50.2	50.2	50.2	66	39.3	0	2	270	0.00	29.840 
01:35	50.2	50.2	50.2	66	39.3	0	2	270	0.00	29.840 
01:40	50.2	50.2	50.2	67	39.7	0	2	270	0.00	29.840 
01:45	50.2	50.2	50.2	67	39.7	0	2	270	0.00	29.839 
01:50	50.2	50.2	50.2	67	39.7	0	1	270	0.00	29.839 
01:55	50.4	50.4	50.4	67	39.9	0	2	248	0.00	29.839 
02:00	50.5	50.5	50.5	67	40.0	0	1	248	0.00	29.840 
02:05	50.8	50.8	50.8	66	39.9	0	3	248	0.00	29.840 
02:10	51.0	51.0	51.0	66	40.0	1	3	225	0.00	29.840 
02:15	51.1	51.1	51.1	66	40.1	1	3	225	0.00	29.839 
02:20	51.3	51.3	51.3	65	39.9	1	5	225	0.00	29.839 
02:25	51.4	51.4	51.4	65	40.0	1	2	270	0.00	29.839 
02:30	51.4	51.4	51.4	65	40.0	1	4	248	0.00	29.843 
02:35	51.4	51.4	51.4	65	40.0	1	4	248	0.00	29.843 
02:40	51.4	51.4	51.4	66	40.4	0	2	248	0.00	29.843 
02:45	51.4	51.4	51.4	66	40.4	0	3	248	0.00	29.849 
02:50	51.6	51.6	51.6	66	40.6	0	1	248	0.00	29.849 
02:55	51.7	51.7	51.7	66	40.7	0	2	248	0.00	29.849 
03:00	51.7	51.7	51.7	68	41.5	0	2	248	0.00	29.849 
03:05	51.4	51.4	51.4	70	41.9	2	6	270	0.00	29.849 
03:10	49.8	49.8	49.8	74	41.9	3	7	292	0.00	29.849 
03:15	48.3	48.3	48.3	78	41.8	3	9	315	0.00	29.871 
03:20	47.3	47.3	47.3	80	41.4	3	6	292	0.00	29.871 
03:25	46.8	46.8	46.8	82	41.6	1	4	292	0.00	29.871 
03:30	46.4	46.4	46.4	84	41.8	1	3	338	0.00	29.866 
03:35	46.1	46.1	46.1	86	42.1	1	4	315	0.01	29.866 
03:40	46.0	46.0	46.0	87	42.4	1	3	270	0.00	29.866 
03:45	45.8	45.8	45.8	88	42.5	0	3	270	0.00	29.865 
03:50	45.7	45.7	45.7	88	42.4	0	2	270	0.00	29.865 
03:55	45.5	45.5	45.5	88	42.2	1	3	270	0.00	29.865 
04:00	45.4	45.4	45.4	89	42.3	1	4	292	0.00	29.870 
04:05	45.4	45.4	45.4	89	42.3	1	4	292	0.00	29.870 
04:10	45.4	45.4	45.4	89	42.3	0	2	270	0.00	29.870 
04:15	45.4	45.4	45.4	90	42.6	1	2	315	0.00	29.872 
04:20	45.4	45.4	45.4	90	42.6	1	4	270	0.00	29.872 
04:25	45.2	45.2	45.2	90	42.4	1	3	270	0.00	29.872 
04:30	45.2	45.2	45.2	90	42.4	1	3	270	0.00	29.870 
04:35	45.2	45.2	45.2	90	42.4	1	3	270	0.00	29.870 
04:40	45.2	45.2	45.2	90	42.4	1	4	270	0.00	29.870 
04:45	45.2	45.2	45.2	90	42.4	0	3	270	0.00	29.874 
04:50	45.2	45.2	45.2	90	42.4	0	1	270	0.00	29.874 
04:55	45.1	45.1	45.1	90	42.3	0	3	270	0.01	29.874 
05:00	45.1	45.1	45.1	90	42.3	0	1	270	0.00	29.874 
05:05	45.1	45.1	45.1	90	42.3	0	1	270	0.00	29.874 
05:10	45.1	45.1	45.1	90	42.3	0	1	270	0.00	29.874 
05:15	45.1	45.1	45.1	91	42.6	0	1	270	0.00	29.876 
05:20	44.9	44.9	44.9	91	42.4	0	1	270	0.00	29.876 
05:25	45.1	45.1	45.1	91	42.6	0	1	270	0.00	29.876 
05:30	44.9	44.9	44.9	91	42.4	0	2	270	0.00	29.886 
05:35	44.9	44.9	44.9	91	42.4	0	1	270	0.00	29.886 
05:40	44.9	44.9	44.9	91	42.4	0	2	270	0.00	29.886 
05:45	44.8	44.8	44.8	91	42.3	0	2	270	0.00	29.891 
05:50	44.8	44.8	44.8	91	42.3	1	3	270	0.00	29.891 
05:55	44.6	44.6	44.6	91	42.1	1	3	270	0.00	29.891 
06:00	44.5	44.5	44.5	91	42.0	1	4	292	0.00	29.892 
06:05	44.5	44.5	44.5	91	42.0	1	3	292	0.00	29.892 
06:10	44.3	44.3	44.3	91	41.8	1	5	292	0.00	29.892 
06:15	44.2	44.2	44.2	91	41.7	2	5	315	0.00	29.907 
06:20	44.1	44.1	44.1	90	41.4	0	3	248	0.00	29.907 
06:25	44.1	44.1	44.1	90	41.4	1	3	248	0.00	29.907 
06:30	43.9	43.9	43.9	90	41.2	0	2	248	0.00	29.910 
06:35	43.8	43.8	43.8	90	41.1	0	2	248	0.00	29.910 
06:40	43.6	43.6	43.6	89	40.6	0	2	248	0.00	29.910 
06:45	43.3	43.3	43.3	89	40.3	0	2	248	0.00	29.919 
06:50	43.3	43.3	43.3	89	40.3	1	4	248	0.00	29.919 
06:55	43.2	43.2	43.2	89	40.2	1	3	292	0.00	29.919 
07:00	43.1	43.1	43.1	89	40.1	2	4	270	0.00	29.927 
07:05	42.8	42.8	42.8	89	39.8	2	3	270	0.00	29.927 
07:10	42.6	42.6	42.6	89	39.6	1	3	270	0.00	29.927 
07:15	42.5	42.5	42.5	89	39.5	0	3	270	0.00	29.939 
07:20	42.3	42.3	42.3	89	39.3	0	2	270	0.00	29.939 
07:25	42.2	42.2	42.2	89	39.2	0	2	270	0.00	29.939 
07:30	41.9	41.9	41.9	89	38.9	1	3	270	0.00	29.941 
07:35	41.8	41.8	41.8	89	38.8	0	3	270	0.00	29.941 
07:40	41.6	41.6	41.6	89	38.6	1	3	270	0.00	29.941 
07:45	41.6	41.6	41.6	89	38.6	1	3	270	0.00	29.947 
07:50	41.5	41.5	41.5	89	38.5	1	4	270	0.00	29.947 
07:55	41.5	41.5	41.5	89	38.5	0	1	270	0.00	29.947 
08:00	41.6	41.6	41.6	89	38.6	1	2	270	0.00	29.951 
08:05	41.6	41.6	41.6	89	38.6	1	3	270	0.00	29.951 
08:10	41.8	41.8	41.8	89	38.8	1	3	270	0.00	29.951 
08:15	41.8	41.8	41.8	88	38.5	1	3	270	0.00	29.962 
08:20	41.8	41.8	41.8	88	38.5	1	4	270	0.00	29.962 
08:25	41.9	41.9	41.9	88	38.6	1	5	270	0.00	29.962 
08:30	41.9	41.9	41.9	88	38.6	1	4	270	0.00	29.965 
08:35	41.9	41.9	41.9	87	38.3	2	5	270	0.00	29.965 
08:40	42.1	42.1	42.1	86	38.2	2	5	270	0.00	29.965 
08:45	42.2	42.2	42.2	87	38.6	1	3	270	0.00	29.969 
08:50	42.3	42.3	42.3	87	38.7	1	4	270	0.00	29.969 
08:55	42.3	42.3	42.3	86	38.4	1	3	248	0.00	29.969 
09:00	42.3	42.3	42.3	86	38.4	1	5	270	0.00	29.977 
09:05	42.3	42.3	42.3	86	38.4	1	5	270	0.00	29.977 
09:10	42.5	42.5	42.5	86	38.6	1	4	248	0.00	29.977 
09:15	42.8	42.8	42.8	85	38.6	1	5	270	0.00	29.982 
09:20	42.8	42.8	42.8	85	38.6	1	4	270	0.00	29.982 
09:25	42.8	42.8	42.8	84	38.3	2	6	270	0.00	29.982 
09:30	42.9	42.9	42.9	84	38.4	2	4	270	0.00	29.990 
09:35	42.9	42.9	42.9	84	38.4	2	5	270	0.00	29.990 
09:40	42.9	42.9	42.9	84	38.4	1	5	270	0.00	29.990 
09:45	43.1	43.1	43.1	84	38.6	1	3	248	0.00	29.995 
09:50	43.5	43.5	43.5	84	39.0	1	4	248	0.00	29.995 
09:55	43.8	43.8	43.8	84	39.3	2	5	270	0.00	29.995 
10:00	43.9	43.9	43.9	82	38.8	3	6	270	0.00	29.997 
10:05	44.2	44.2	44.2	82	39.1	1	5	270	0.00	29.997 
10:10	44.6	44.6	44.6	81	39.1	2	5	270	0.00	29.997 
10:15	44.9	44.9	44.9	81	39.4	3	6	270	0.00	30.002 
10:20	45.2	45.2	45.2	79	39.1	2	5	270	0.00	30.002 
10:25	45.5	45.5	45.5	77	38.7	2	5	315	0.00	30.002 
10:30	46.0	46.0	46.0	77	39.2	1	4	248	0.00	30.007 
10:35	46.4	46.4	46.4	76	39.3	2	6	270	0.00	30.007 
10:40	46.5	46.5	46.5	75	39.0	2	5	292	0.00	30.007 
10:45	46.8	46.8	46.8	74	39.0	3	5	270	0.00	30.010 
10:50	47.1	47.1	47.1	73	38.9	3	5	292	0.00	30.010 
10:55	47.1	47.1	47.1	71	38.2	3	6	270	0.00	30.010 
11:00	47.6	47.6	47.6	70	38.3	2	6	292	0.00	30.014 
11:05	48.2	48.2	48.2	71	39.2	2	5	248	0.00	30.014 
11:10	48.6	48.6	48.6	68	38.5	2	4	270	0.00	30.014 
11:15	48.8	48.8	48.8	65	37.6	2	4	270	0.00	30.016 
11:20	48.9	48.9	48.9	65	37.7	3	5	270	0.00	30.016 
11:25	49.1	49.1	49.1	63	37.1	3	7	248	0.00	30.016 
11:30	49.4	49.4	49.4	62	36.9	2	6	292	0.00	30.018 
11:35	49.6	49.6	49.6	63	37.5	3	5	270	0.00	30.018 
11:40	50.1	50.1	50.1	61	37.2	2	6	270	0.00	30.018 
11:45	49.4	48.2	49.4	58	35.2	4	6	270	0.00	30.016 
11:50	49.4	49.4	49.4	59	35.7	3	6	270	0.00	30.016 
11:55	49.6	49.6	49.6	58	35.4	3	7	270	0.00	30.016 
12:00	49.6	49.6	49.6	60	36.3	3	6	270	0.00	30.022 
12:05	50.2	50.2	50.2	59	36.4	3	6	248	0.00	30.022 
12:10	49.5	49.5	49.5	58	35.3	3	6	270	0.00	30.022 
12:15	49.1	49.1	49.1	62	36.6	3	5	270	0.00	30.031 
12:20	49.1	49.1	49.1	62	36.6	2	5	270	0.00	30.031 
12:25	49.2	49.2	49.2	62	36.7	2	5	270	0.00	30.031 
12:30	49.5	49.5	49.5	63	37.4	2	5	270	0.00	30.039 
12:35	49.1	49.1	49.1	60	35.8	3	7	270	0.00	30.039 
12:40	49.1	49.1	49.1	63	37.1	3	6	270	0.00	30.039 
12:45	49.1	49.1	49.1	61	36.2	3	6	270	0.00	30.041 
12:50	49.4	49.4	49.4	62	36.9	3	6	270	0.00	30.041 
12:55	49.8	49.8	49.8	62	37.3	3	6	270	0.00	30.041 
13:00	49.4	49.4	49.4	62	36.9	3	6	248	0.00	30.048 
13:05	49.1	47.8	49.1	61	36.2	4	6	270	0.00	30.048 
13:10	48.9	48.9	48.9	62	36.5	3	9	270	0.00	30.048 
13:15	48.6	48.6	48.6	60	35.3	3	7	270	0.00	30.052 
13:20	47.9	47.9	47.9	61	35.1	3	5	270	0.00	30.052 
13:25	47.4	47.4	47.4	62	35.0	1	4	248	0.00	30.052 
13:30	47.6	47.6	47.6	61	34.8	3	5	270	0.00	30.053 
13:35	47.4	47.4	47.4	59	33.8	3	7	315	0.00	30.053 
13:40	47.1	47.1	47.1	60	33.9	3	6	270	0.00	30.053 
13:45	47.4	47.4	47.4	61	34.6	2	6	270	0.00	30.053 
13:50	47.7	47.7	47.7	61	34.9	1	4	248	0.00	30.053 
13:55	47.4	47.4	47.4	58	33.4	3	6	270	0.00	30.053 
14:00	47.1	47.1	47.1	58	33.1	3	6	270	0.00	30.050 
14:05	46.8	46.8	46.8	58	32.8	3	6	270	0.00	30.050 
14:10	46.8	45.2	46.8	58	32.8	4	8	315	0.00	30.050 
14:15	46.5	44.8	46.5	57	32.1	4	8	315	0.00	30.054 
14:20	46.2	43.8	46.2	56	31.4	5	9	270	0.00	30.054 
14:25	46.1	44.4	46.1	56	31.3	4	7	270	0.00	30.054 
14:30	46.1	44.4	46.1	54	30.4	4	10	270	0.00	30.056 
14:35	46.0	44.2	46.0	54	30.3	4	7	270	0.00	30.056 
14:40	46.0	46.0	46.0	56	31.2	3	9	270	0.00	30.056 
14:45	46.1	46.1	46.1	55	30.8	3	7	270	0.00	30.063 
14:50	46.2	46.2	46.2	55	30.9	3	6	270	0.00	30.063 
14:55	46.4	46.4	46.4	54	30.7	3	7	270	0.00	30.063 
15:00	46.5	46.5	46.5	53	30.3	3	6	270	0.00	30.068 
15:05	46.7	46.7	46.7	54	30.9	2	6	270	0.00	30.068 
15:10	46.8	46.8	46.8	52	30.1	3	7	270	0.00	30.068 
15:15	46.8	45.2	46.8	50	29.2	4	9	270	0.00	30.076 
15:20	46.8	46.8	46.8	51	29.6	3	7	292	0.00	30.076 
15:25	46.7	46.7	46.7	51	29.5	3	6	270	0.00	30.076 
15:30	46.5	46.5	46.5	52	29.8	3	7	270	0.00	30.074 
15:35	47.3	47.3	47.3	50	29.6	3	6	292	0.00	30.074 
15:40	47.6	47.6	47.6	49	29.4	3	9	270	0.00	30.074 
15:45	47.4	47.4	47.4	47	28.2	3	6	270	0.00	30.078 
15:50	47.1	47.1	47.1	48	28.4	2	5	292	0.00	30.078 
15:55	47.6	47.6	47.6	48	28.9	3	6	315	0.00	30.078 
16:00	48.2	48.2	48.2	47	28.9	2	6	270	0.00	30.080 
16:05	48.3	48.3	48.3	48	29.5	3	7	315	0.00	30.080 
16:10	48.5	48.5	48.5	45	28.1	3	8	270	0.00	30.080 
16:15	48.5	48.5	48.5	46	28.7	2	6	270	0.00	30.091 
16:20	48.3	48.3	48.3	44	27.4	3	7	292	0.00	30.091 
16:25	48.0	48.0	48.0	43	26.6	3	6	315	0.00	30.091 
16:30	48.2	48.2	48.2	43	26.8	3	7	270	0.00	30.092 
16:35	48.0	48.0	48.0	44	27.1	2	6	292	0.00	30.092 
16:40	48.8	48.8	48.8	43	27.3	3	5	270	0.00	30.092 
16:45	48.9	47.6	48.9	42	26.8	4	9	270	0.00	30.091 
16:50	48.9	46.9	48.9	41	26.2	5	10	270	0.00	30.091 
16:55	48.9	48.9	48.9	42	26.8	3	6	270	0.00	30.091 
17:00	48.9	48.9	48.9	42	26.8	2	7	248	0.00	30.093 
17:05	48.6	48.6	48.6	42	26.6	3	6	315	0.00	30.093 
17:10	48.3	48.3	48.3	43	26.9	3	6	270	0.00	30.093 
17:15	47.7	47.7	47.7	42	25.7	3	7	270	0.00	30.105 
17:20	47.7	46.2	47.7	42	25.7	4	7	270	0.00	30.105 
17:25	48.0	46.6	48.0	42	26.0	4	7	270	0.00	30.105 
17:30	48.0	48.0	48.0	43	26.6	3	7	270	0.00	30.105 
17:35	48.0	48.0	48.0	43	26.6	3	7	270	0.00	30.105 
17:40	47.7	47.7	47.7	43	26.3	2	4	292	0.00	30.105 
17:45	47.4	47.4	47.4	42	25.5	2	6	292	0.00	30.108 
17:50	47.1	47.1	47.1	43	25.8	3	5	270	0.00	30.108 
17:55	46.8	46.8	46.8	43	25.5	2	4	292	0.00	30.108 
18:00	46.7	46.7	46.7	43	25.4	2	4	270	0.00	30.108 
18:05	46.7	46.7	46.7	44	26.0	1	4	270	0.00	30.108 
18:10	46.8	46.8	46.8	44	26.0	1	4	315	0.00	30.108 
18:15	46.8	46.8	46.8	44	26.0	1	4	270	0.00	30.115 
18:20	47.0	47.0	47.0	44	26.2	0	2	292	0.00	30.115 
18:25	47.1	47.1	47.1	45	26.9	1	2	292	0.00	30.115 
18:30	47.1	47.1	47.1	44	26.3	0	4	292	0.00	30.122 
18:35	47.1	47.1	47.1	44	26.3	1	3	292	0.00	30.122 
18:40	47.0	47.0	47.0	44	26.2	1	3	292	0.00	30.122 
18:45	46.8	46.8	46.8	44	26.0	1	3	292	0.00	30.127 
18:50	46.7	46.7	46.7	44	26.0	1	3	292	0.00	30.127 
18:55	46.5	46.5	46.5	44	25.8	1	4	270	0.00	30.127 
19:00	46.4	46.4	46.4	44	25.7	1	3	270	0.00	30.136 
19:05	46.2	46.2	46.2	45	26.0	0	3	270	0.00	30.136 
19:10	46.0	46.0	46.0	45	25.9	0	2	270	0.00	30.136 
19:15	45.8	45.8	45.8	46	26.2	0	1	270	0.00	30.143 
19:20	45.5	45.5	45.5	46	25.9	0	1	270	0.00	30.143 
19:25	45.2	45.2	45.2	47	26.2	0	1	270	0.00	30.143 
19:30	44.9	44.9	44.9	47	25.9	0	0	---	0.00	30.148 
19:35	44.6	44.6	44.6	48	26.1	0	0	---	0.00	30.148 
19:40	44.5	44.5	44.5	49	26.5	0	1	270	0.00	30.148 
19:45	44.1	44.1	44.1	50	26.7	0	0	---	0.00	30.157 
19:50	43.8	43.8	43.8	52	27.3	0	0	---	0.00	30.157 
19:55	43.3	43.3	43.3	53	27.3	0	0	---	0.00	30.157 
20:00	42.9	42.9	42.9	54	27.4	0	0	---	0.00	30.163 
20:05	42.5	42.5	42.5	55	27.5	0	0	---	0.00	30.163 
20:10	41.9	41.9	41.9	55	26.9	0	0	---	0.00	30.163 
20:15	41.5	41.5	41.5	58	27.8	0	0	---	0.00	30.166 
20:20	41.2	41.2	41.2	58	27.6	0	0	---	0.00	30.166 
20:25	40.8	40.8	40.8	60	28.0	0	0	---	0.00	30.166 
20:30	40.3	40.3	40.3	61	27.9	0	0	---	0.00	30.177 
20:35	39.9	39.9	39.9	62	28.0	0	0	---	0.00	30.177 
20:40	39.5	39.5	39.5	64	28.3	0	0	---	0.00	30.177 
20:45	39.1	39.1	39.1	64	28.0	0	0	---	0.00	30.181 
20:50	38.6	38.6	38.6	65	27.9	0	0	---	0.00	30.181 
20:55	38.2	38.2	38.2	67	28.2	0	0	---	0.00	30.181 
21:00	37.9	37.9	37.9	67	27.9	0	0	---	0.00	30.183 
21:05	37.6	37.6	37.6	69	28.4	0	0	---	0.00	30.183 
21:10	37.3	37.3	37.3	70	28.4	0	0	---	0.00	30.183 
21:15	37.2	37.2	37.2	70	28.3	0	0	---	0.00	30.189 
21:20	36.9	36.9	36.9	71	28.4	0	0	---	0.00	30.189 
21:25	36.6	36.6	36.6	72	28.4	0	0	---	0.00	30.189 
21:30	36.3	36.3	36.3	73	28.5	0	0	---	0.00	30.197 
21:35	36.2	36.2	36.2	73	28.4	0	0	---	0.00	30.197 
21:40	35.9	35.9	35.9	74	28.4	0	0	---	0.00	30.197 
21:45	35.8	35.8	35.8	75	28.7	0	0	---	0.00	30.199 
21:50	35.6	35.6	35.6	76	28.8	0	0	---	0.00	30.199 
21:55	35.5	35.5	35.5	76	28.7	0	0	---	0.00	30.199 
22:00	35.3	35.3	35.3	76	28.5	0	0	---	0.00	30.202 
22:05	35.2	35.2	35.2	77	28.7	0	0	---	0.00	30.202 
22:10	35.2	35.2	35.2	77	28.7	0	0	---	0.00	30.202 
22:15	35.0	35.0	35.0	77	28.5	0	0	---	0.00	30.203 
22:20	35.0	35.0	35.0	77	28.5	0	0	---	0.00	30.203 
22:25	35.0	35.0	35.0	77	28.5	0	0	---	0.00	30.203 
22:30	34.9	34.9	34.9	78	28.7	0	0	---	0.00	30.207 
22:35	34.7	34.7	34.7	78	28.6	0	0	---	0.00	30.207 
22:40	34.7	34.7	34.7	78	28.6	0	0	---	0.00	30.207 
22:45	34.6	34.6	34.6	79	28.8	0	0	---	0.00	30.210 
22:50	34.6	34.6	34.6	79	28.8	0	0	---	0.00	30.210 
22:55	34.6	34.6	34.6	79	28.8	0	0	---	0.00	30.210 
23:00	34.6	34.6	34.6	80	29.1	0	0	---	0.00	30.210 
23:05	34.7	34.7	34.7	80	29.2	0	0	---	0.00	30.210 
23:10	34.7	34.7	34.7	80	29.2	0	0	---	0.00	30.210 
23:15	34.7	34.7	34.7	80	29.2	0	0	---	0.00	30.209 
23:20	34.7	34.7	34.7	80	29.2	0	0	---	0.00	30.209 
23:25	34.9	34.9	34.9	79	29.1	0	0	---	0.00	30.209 
23:30	34.7	34.7	34.7	79	28.9	0	0	---	0.00	30.208 
23:35	34.9	34.9	34.9	79	29.1	0	0	---	0.00	30.208 
23:40	34.9	34.9	34.9	79	29.1	0	0	---	0.00	30.208 
23:45	35.0	35.0	35.0	79	29.2	0	0	---	0.00	30.210 
23:50	35.0	35.0	35.0	79	29.2	0	0	---	0.00	30.210 
23:55	35.0	35.0	35.0	79	29.2	0	0	---	0.00	30.210 

CoCoRaHS
IN-AL-39
A2 Web Hosting
Creative Commons License
GoDaddy
search engine by freefind advanced

loaded 2018-11-15 06:06:29 • last modified 2010-11-18 10:43:29
Privacy PolicyDisclaimer
• wx.awcolley.com is powered by PmWiki v.2002016 •
• all content (unless otherwise noted) © 2018 A W Colley